createdAt,value
2019-04-25T00:01:01.166Z,21.67
2019-04-25T00:03:46.660Z,32.67
2019-04-25T00:06:15.766Z,30.40
2019-04-25T00:08:45.316Z,27.83
2019-04-25T00:11:14.391Z,34.50
2019-04-25T00:13:44.083Z,28.50
2019-04-25T00:16:14.011Z,29.17
2019-04-25T00:18:43.043Z,29.37
2019-04-25T00:21:28.711Z,31.30
2019-04-25T00:24:02.714Z,31.80
2019-04-25T00:26:48.556Z,28.70
2019-04-25T00:29:18.001Z,32.97
2019-04-25T00:31:47.189Z,24.87
2019-04-25T00:34:15.576Z,25.00
2019-04-25T00:36:45.562Z,29.43
2019-04-25T00:39:14.230Z,28.10
2019-04-25T00:41:45.152Z,32.00
2019-04-25T00:44:12.923Z,26.73
2019-04-25T00:46:43.305Z,25.63
2019-04-25T00:49:12.262Z,27.03
2019-04-25T00:51:42.688Z,24.90
2019-04-25T00:54:11.858Z,28.47
2019-04-25T00:56:43.291Z,26.97
2019-04-25T00:59:33.321Z,31.93
2019-04-25T01:02:21.504Z,29.63
2019-04-25T01:04:51.758Z,25.63
2019-04-25T01:07:22.241Z,26.13
2019-04-25T01:09:52.436Z,32.07
2019-04-25T01:12:21.659Z,28.53
2019-04-25T01:14:50.896Z,38.50
2019-04-25T01:17:21.190Z,24.40
2019-04-25T01:19:51.051Z,37.77
2019-04-25T01:22:19.551Z,35.67
2019-04-25T01:24:47.953Z,26.63
2019-04-25T01:27:16.465Z,39.43
2019-04-25T01:29:46.316Z,40.17
2019-04-25T01:32:18.356Z,38.13
2019-04-25T01:34:58.963Z,33.07
2019-04-25T01:37:45.735Z,32.77
2019-04-25T01:40:47.106Z,42.40
2019-04-25T01:43:58.353Z,32.23
2019-04-25T01:46:26.603Z,36.20
2019-04-25T01:48:55.437Z,36.43
2019-04-25T01:51:24.090Z,34.90
2019-04-25T01:53:53.152Z,29.33
2019-04-25T01:56:24.773Z,35.53
2019-04-25T01:58:54.517Z,38.90
2019-04-25T02:01:24.175Z,34.97
2019-04-25T02:03:54.321Z,39.13
2019-04-25T02:06:23.150Z,35.37
2019-04-25T02:08:55.285Z,37.47
2019-04-25T02:11:34.018Z,31.43
2019-04-25T02:14:05.059Z,26.50
2019-04-25T02:16:33.550Z,29.37
2019-04-25T02:19:04.089Z,30.10
2019-04-25T02:21:33.471Z,28.53
2019-04-25T02:24:03.902Z,21.20
2019-04-25T02:26:34.068Z,24.17
2019-04-25T02:29:04.576Z,23.43
2019-04-25T02:31:34.751Z,22.07
2019-04-25T02:34:08.191Z,22.83
2019-04-25T02:36:35.024Z,28.23
2019-04-25T02:39:08.927Z,28.90
2019-04-25T02:41:37.820Z,28.63
2019-04-25T02:44:09.823Z,30.13
2019-04-25T02:47:08.196Z,27.87
2019-04-25T02:50:00.842Z,36.30
2019-04-25T02:52:41.093Z,32.40
2019-04-25T02:55:11.097Z,35.47
2019-04-25T02:57:40.129Z,27.57
2019-04-25T03:00:24.634Z,35.50
2019-04-25T03:02:54.708Z,30.07
2019-04-25T03:05:25.438Z,44.27
2019-04-25T03:07:54.476Z,29.97
2019-04-25T03:10:26.727Z,31.83
2019-04-25T03:12:54.459Z,29.83
2019-04-25T03:15:24.411Z,33.37
2019-04-25T03:17:54.671Z,29.13
2019-04-25T03:20:38.387Z,29.03
2019-04-25T03:23:35.133Z,29.33
2019-04-25T03:26:04.746Z,27.60
2019-04-25T03:28:33.948Z,36.83
2019-04-25T03:31:08.573Z,35.63
2019-04-25T03:33:37.837Z,37.53
2019-04-25T03:36:05.485Z,40.03
2019-04-25T03:38:34.418Z,41.00
2019-04-25T03:41:04.785Z,48.97
2019-04-25T03:43:33.367Z,38.80
2019-04-25T03:46:04.964Z,39.83
2019-04-25T03:48:36.491Z,41.40
2019-04-25T03:51:05.397Z,34.87
2019-04-25T03:53:34.071Z,42.40
2019-04-25T03:56:04.769Z,29.97
2019-04-25T03:58:33.785Z,35.73
2019-04-25T04:01:03.892Z,38.50
2019-04-25T04:03:33.906Z,42.47
2019-04-25T04:06:04.302Z,26.30
2019-04-25T04:08:35.444Z,31.10
2019-04-25T04:11:05.373Z,28.90
2019-04-25T04:13:34.322Z,27.03
2019-04-25T04:16:03.329Z,31.87
2019-04-25T04:18:44.204Z,27.37
2019-04-25T04:21:38.458Z,33.40
2019-04-25T04:24:16.630Z,30.10
2019-04-25T04:27:06.731Z,30.23
2019-04-25T04:29:35.065Z,26.20
2019-04-25T04:32:03.782Z,27.10
2019-04-25T04:34:33.752Z,25.97
2019-04-25T04:37:03.712Z,33.03
2019-04-25T04:39:33.837Z,25.83
2019-04-25T04:42:03.816Z,28.43
2019-04-25T04:44:34.188Z,25.03
2019-04-25T04:47:04.037Z,21.67
2019-04-25T04:49:34.110Z,23.90
2019-04-25T04:52:04.532Z,23.37
2019-04-25T04:54:34.538Z,22.60
2019-04-25T04:57:16.689Z,23.40
2019-04-25T04:59:33.871Z,21.93
2019-04-25T05:02:24.948Z,20.90
2019-04-25T05:05:19.126Z,18.90
2019-04-25T05:07:53.820Z,14.70
2019-04-25T05:10:23.672Z,18.60
2019-04-25T05:12:53.338Z,18.00
2019-04-25T05:15:24.545Z,17.67
2019-04-25T05:17:53.956Z,16.40
2019-04-25T05:20:24.208Z,16.07
2019-04-25T05:22:53.322Z,20.50
2019-04-25T05:25:42.363Z,16.93
2019-04-25T05:28:28.069Z,13.43
2019-04-25T05:31:19.708Z,15.73
2019-04-25T05:33:48.224Z,19.80
2019-04-25T05:36:17.567Z,16.20
2019-04-25T05:38:46.858Z,13.80
2019-04-25T05:41:25.270Z,16.00
2019-04-25T05:43:53.656Z,14.87
2019-04-25T05:46:22.025Z,16.40
2019-04-25T05:48:50.983Z,15.53
2019-04-25T05:51:19.570Z,16.00
2019-04-25T05:53:47.970Z,17.03
2019-04-25T05:56:16.519Z,15.07
2019-04-25T05:58:44.968Z,20.40
2019-04-25T06:01:13.751Z,15.93
2019-04-25T06:03:43.896Z,12.83
2019-04-25T06:06:13.424Z,21.33
2019-04-25T06:08:49.340Z,16.57
2019-04-25T06:11:28.108Z,15.83
2019-04-25T06:14:00.625Z,18.03
2019-04-25T06:16:33.209Z,16.53
2019-04-25T06:19:30.633Z,14.07
2019-04-25T06:21:59.373Z,13.53
2019-04-25T06:24:40.543Z,19.53
2019-04-25T06:27:28.601Z,20.13
2019-04-25T06:30:24.932Z,16.27
2019-04-25T06:32:54.213Z,15.10
2019-04-25T06:35:24.739Z,16.57
2019-04-25T06:37:54.756Z,16.83
2019-04-25T06:40:25.105Z,16.33
2019-04-25T06:42:55.284Z,19.00
2019-04-25T06:45:50.261Z,16.23
2019-04-25T06:48:35.296Z,16.67
2019-04-25T06:51:04.049Z,19.47
2019-04-25T06:53:34.488Z,21.80
2019-04-25T06:56:03.526Z,22.00
2019-04-25T06:58:34.223Z,28.53
2019-04-25T07:01:03.393Z,25.33
2019-04-25T07:03:31.839Z,26.37
2019-04-25T07:06:01.130Z,19.93
2019-04-25T07:08:29.493Z,25.00
2019-04-25T07:10:57.893Z,21.97
2019-04-25T07:13:27.006Z,19.40
2019-04-25T07:15:55.723Z,20.50
2019-04-25T07:18:29.238Z,24.97
2019-04-25T07:20:54.799Z,22.67
2019-04-25T07:23:23.688Z,21.90
2019-04-25T07:25:59.866Z,21.27
2019-04-25T07:28:53.887Z,26.02
2019-04-25T07:31:39.775Z,25.03
2019-04-25T07:34:28.866Z,25.52
2019-04-25T07:36:57.611Z,27.20
2019-04-25T07:39:27.492Z,22.62
2019-04-25T07:41:56.301Z,24.85
2019-04-25T07:44:38.009Z,32.60
2019-04-25T07:46:55.026Z,21.35
2019-04-25T07:49:23.651Z,21.37
2019-04-25T07:51:53.672Z,23.12
2019-04-25T07:54:23.977Z,27.27
2019-04-25T07:56:55.090Z,21.70
2019-04-25T07:59:27.346Z,24.67
2019-04-25T08:01:56.307Z,25.10
2019-04-25T08:04:24.777Z,21.97
2019-04-25T08:06:54.266Z,24.52
2019-04-25T08:09:24.458Z,23.00
2019-04-25T08:11:54.927Z,24.55
2019-04-25T08:14:47.821Z,20.80
2019-04-25T08:17:39.616Z,21.00
2019-04-25T08:20:11.469Z,30.23
2019-04-25T08:22:52.013Z,27.02
2019-04-25T08:25:14.043Z,30.37
2019-04-25T08:27:44.818Z,25.05
2019-04-25T08:30:14.042Z,21.75
2019-04-25T08:32:44.484Z,30.17
2019-04-25T08:35:13.947Z,25.95
2019-04-25T08:37:44.062Z,24.05
2019-04-25T08:40:16.058Z,29.35
2019-04-25T08:42:44.523Z,22.98
2019-04-25T08:45:13.681Z,21.15
2019-04-25T08:47:43.797Z,21.60
2019-04-25T08:50:28.849Z,24.70
2019-04-25T08:52:54.303Z,22.40
2019-04-25T08:56:00.745Z,29.92
2019-04-25T08:58:48.055Z,27.50
2019-04-25T09:01:37.932Z,28.52
2019-04-25T09:04:14.941Z,19.65
2019-04-25T09:06:44.276Z,20.55
2019-04-25T09:09:13.695Z,23.73
2019-04-25T09:11:44.642Z,20.82
2019-04-25T09:14:14.268Z,20.32
2019-04-25T09:16:45.187Z,30.15
2019-04-25T09:19:14.266Z,17.67
2019-04-25T09:21:48.103Z,19.65
2019-04-25T09:24:14.764Z,24.27
2019-04-25T09:26:44.231Z,19.17
2019-04-25T09:29:17.593Z,24.30
2019-04-25T09:31:45.121Z,24.63
2019-04-25T09:34:15.635Z,22.95
2019-04-25T09:36:45.130Z,21.12
2019-04-25T09:39:33.794Z,18.67
2019-04-25T09:42:05.258Z,19.05
2019-04-25T09:44:44.166Z,27.98
2019-04-25T09:47:13.685Z,22.65
2019-04-25T09:49:44.897Z,29.40
2019-04-25T09:52:18.748Z,25.23
2019-04-25T09:55:04.911Z,25.25
2019-04-25T09:57:47.588Z,20.08
2019-04-25T10:00:28.225Z,30.08
2019-04-25T10:02:56.500Z,22.70
2019-04-25T10:05:24.912Z,28.02
2019-04-25T10:07:53.394Z,18.02
2019-04-25T10:10:24.463Z,31.12
2019-04-25T10:12:58.934Z,22.87
2019-04-25T10:16:01.944Z,25.25
2019-04-25T10:18:33.487Z,18.48
2019-04-25T10:21:06.472Z,18.25
2019-04-25T10:23:35.026Z,23.10
2019-04-25T10:26:05.212Z,24.80
2019-04-25T10:28:33.867Z,24.80
2019-04-25T10:33:50.472Z,23.65
2019-04-25T10:36:19.231Z,24.67
2019-04-25T10:39:01.909Z,20.37
2019-04-25T10:41:18.739Z,23.50
2019-04-25T10:43:50.428Z,22.75
2019-04-25T10:46:22.371Z,22.17
2019-04-25T10:48:50.964Z,19.50
2019-04-25T10:51:19.379Z,21.07
2019-04-25T10:53:48.811Z,22.80
2019-04-25T10:56:17.721Z,23.27
2019-04-25T10:58:46.755Z,25.88
2019-04-25T11:01:15.626Z,20.72
2019-04-25T11:04:13.864Z,20.12
2019-04-25T11:06:45.470Z,18.92
2019-04-25T11:09:25.842Z,19.35
2019-04-25T11:11:54.577Z,22.02
2019-04-25T11:14:25.631Z,20.20
2019-04-25T11:16:55.239Z,16.90
2019-04-25T11:19:23.981Z,15.15
2019-04-25T11:21:53.781Z,17.45
2019-04-25T11:24:26.828Z,23.90
2019-04-25T11:26:56.316Z,21.27
2019-04-25T11:29:26.894Z,19.00
2019-04-25T11:31:55.821Z,19.42
2019-04-25T11:34:27.266Z,17.85
2019-04-25T11:36:55.754Z,15.40
2019-04-25T11:39:44.362Z,20.20
2019-04-25T11:42:16.085Z,18.23
2019-04-25T11:44:45.632Z,18.27
2019-04-25T11:47:15.822Z,19.57
2019-04-25T11:49:47.856Z,18.95
2019-04-25T11:52:27.314Z,16.23
2019-04-25T11:54:50.066Z,20.80
2019-04-25T11:57:23.329Z,19.40
2019-04-25T11:59:52.385Z,25.88
2019-04-25T12:02:22.021Z,16.85
2019-04-25T12:04:51.029Z,20.30
2019-04-25T12:07:20.886Z,18.67
2019-04-25T12:09:49.968Z,21.20
2019-04-25T12:12:37.260Z,18.62
2019-04-25T12:15:06.426Z,12.95
2019-04-25T12:17:35.430Z,19.90
2019-04-25T12:20:04.561Z,13.20
2019-04-25T12:22:34.355Z,16.27
2019-04-25T12:25:04.676Z,12.75
2019-04-25T12:27:33.286Z,18.90
2019-04-25T12:30:03.886Z,17.30
2019-04-25T12:32:35.003Z,13.85
2019-04-25T12:35:04.125Z,10.32
2019-04-25T12:37:34.231Z,12.03
2019-04-25T12:40:04.379Z,11.12
2019-04-25T12:42:34.398Z,14.20
2019-04-25T12:45:19.350Z,14.60
2019-04-25T12:47:50.700Z,9.65
2019-04-25T12:50:20.912Z,17.48
2019-04-25T12:52:50.606Z,11.18
2019-04-25T12:55:19.474Z,14.28
2019-04-25T12:57:50.227Z,10.85
2019-04-25T13:00:24.280Z,15.40
2019-04-25T13:02:54.437Z,10.18
2019-04-25T13:05:24.310Z,17.85
2019-04-25T13:07:55.992Z,13.72
2019-04-25T13:10:23.794Z,14.63
2019-04-25T13:12:55.467Z,15.43
2019-04-25T13:15:26.638Z,14.47
2019-04-25T13:17:56.889Z,18.23
2019-04-25T13:20:25.519Z,18.27
2019-04-25T13:22:55.861Z,12.20
2019-04-25T13:25:24.613Z,16.07
2019-04-25T13:28:11.693Z,19.45
2019-04-25T13:31:12.170Z,21.68
2019-04-25T13:33:48.360Z,18.20
2019-04-25T13:36:17.605Z,22.85
2019-04-25T13:38:47.224Z,22.98
2019-04-25T13:41:16.462Z,23.62
2019-04-25T13:43:45.377Z,20.08
2019-04-25T13:46:19.741Z,19.40
2019-04-25T13:48:45.540Z,19.32
2019-04-25T13:51:14.223Z,23.65
2019-04-25T13:53:43.463Z,25.00
2019-04-25T13:56:13.297Z,28.85
2019-04-25T13:58:44.326Z,32.30
2019-04-25T14:01:17.496Z,21.85
2019-04-25T14:03:47.141Z,26.77
2019-04-25T14:06:15.673Z,18.80
2019-04-25T14:08:44.013Z,17.82
2019-04-25T14:11:13.994Z,20.10
2019-04-25T14:13:42.953Z,15.23
2019-04-25T14:16:34.923Z,21.90
2019-04-25T14:19:29.443Z,25.72
2019-04-25T14:22:00.930Z,16.27
2019-04-25T14:24:31.988Z,13.45
2019-04-25T14:26:59.860Z,11.65
2019-04-25T14:29:31.037Z,13.20
2019-04-25T14:31:59.534Z,13.53
2019-04-25T14:34:28.303Z,15.48
2019-04-25T14:36:56.773Z,14.10
2019-04-25T14:39:25.656Z,21.00
2019-04-25T14:41:54.101Z,18.48
2019-04-25T14:44:23.599Z,22.07
2019-04-25T14:46:52.194Z,18.12
2019-04-25T14:49:24.008Z,23.75
2019-04-25T14:51:52.509Z,13.72
2019-04-25T14:54:30.689Z,17.42
2019-04-25T14:57:08.049Z,15.83
2019-04-25T14:59:45.624Z,15.18
2019-04-25T15:02:14.444Z,13.45
2019-04-25T15:04:42.863Z,16.23
2019-04-25T15:07:11.696Z,16.57
2019-04-25T15:09:40.046Z,19.00
2019-04-25T15:12:08.605Z,16.17
2019-04-25T15:14:37.278Z,19.75
2019-04-25T15:17:06.058Z,12.93
2019-04-25T15:19:34.525Z,19.42
2019-04-25T15:22:03.073Z,15.78
2019-04-25T15:24:32.376Z,19.35
2019-04-25T15:27:00.831Z,16.85
2019-04-25T15:29:29.371Z,23.55
2019-04-25T15:31:57.932Z,20.75
2019-04-25T15:34:35.975Z,21.30
2019-04-25T15:37:13.683Z,11.53
2019-04-25T15:40:00.771Z,15.63
2019-04-25T15:42:44.878Z,18.60
2019-04-25T15:45:31.556Z,18.65
2019-04-25T15:48:00.467Z,24.55
2019-04-25T15:50:29.813Z,23.90
2019-04-25T15:52:58.576Z,20.40
2019-04-25T15:55:27.382Z,19.55
2019-04-25T15:57:55.948Z,23.60
2019-04-25T16:00:32.810Z,18.52
2019-04-25T16:03:01.359Z,19.37
2019-04-25T16:05:31.567Z,23.20
2019-04-25T16:08:00.137Z,25.23
2019-04-25T16:10:29.810Z,23.87
2019-04-25T16:12:58.858Z,30.72
2019-04-25T16:15:27.699Z,25.92
2019-04-25T16:17:56.264Z,15.60
2019-04-25T16:20:24.888Z,15.08
2019-04-25T16:22:53.327Z,20.08
2019-04-25T16:25:22.587Z,18.52
2019-04-25T16:27:51.317Z,18.48
2019-04-25T16:30:23.756Z,21.65
2019-04-25T16:32:53.460Z,19.42
2019-04-25T16:35:21.923Z,19.27
2019-04-25T16:37:52.583Z,17.82
2019-04-25T16:40:21.382Z,18.40
2019-04-25T16:42:49.864Z,19.05
2019-04-25T16:45:18.818Z,19.25
2019-04-25T16:47:47.346Z,19.50
2019-04-25T16:50:16.460Z,27.62
2019-04-25T16:52:45.669Z,16.82
2019-04-25T16:55:14.349Z,21.23
2019-04-25T16:57:44.631Z,21.80
2019-04-25T17:00:36.516Z,17.05
2019-04-25T17:03:05.259Z,21.35
2019-04-25T17:05:35.298Z,19.03
2019-04-25T17:08:03.758Z,22.48
2019-04-25T17:10:32.783Z,15.58
2019-04-25T17:13:01.281Z,24.67
2019-04-25T17:15:51.822Z,23.07
2019-04-25T17:18:24.084Z,22.22
2019-04-25T17:21:03.278Z,21.02
2019-04-25T17:23:34.520Z,24.83
2019-04-25T17:26:04.982Z,24.30
2019-04-25T17:28:37.034Z,27.60
2019-04-25T17:31:34.176Z,26.13
2019-04-25T17:34:24.899Z,27.47
2019-04-25T17:37:18.881Z,25.17
2019-04-25T17:39:53.959Z,22.77
2019-04-25T17:42:22.338Z,30.30
2019-04-25T17:44:50.801Z,25.20
2019-04-25T17:47:19.348Z,22.83
2019-04-25T17:49:47.713Z,17.57
2019-04-25T17:52:16.261Z,20.33
2019-04-25T17:54:45.487Z,17.32
2019-04-25T17:57:13.910Z,20.13
2019-04-25T17:59:42.231Z,27.60
2019-04-25T18:02:11.280Z,22.27
2019-04-25T18:04:40.283Z,22.80
2019-04-25T18:07:08.846Z,26.50
2019-04-25T18:09:38.672Z,24.57
2019-04-25T18:12:07.244Z,26.73
2019-04-25T18:14:36.455Z,23.33
2019-04-25T18:17:05.318Z,25.90
2019-04-25T18:19:56.256Z,28.70
2019-04-25T18:22:53.703Z,25.70
2019-04-25T18:25:43.249Z,24.23
2019-04-25T18:28:15.169Z,24.23
2019-04-25T18:30:46.121Z,24.90
2019-04-25T18:33:28.752Z,23.40
2019-04-25T18:36:17.506Z,24.70
2019-04-25T18:39:17.443Z,26.50
2019-04-25T18:41:50.999Z,20.60
2019-04-25T18:44:21.153Z,23.20
2019-04-25T18:46:49.589Z,25.90
2019-04-25T18:49:18.026Z,24.43
2019-04-25T18:51:56.376Z,27.70
2019-04-25T18:54:47.433Z,25.27
2019-04-25T18:57:45.385Z,20.20
2019-04-25T19:00:32.554Z,27.17
2019-04-25T19:03:22.897Z,22.27
2019-04-25T19:06:01.960Z,22.30
2019-04-25T19:08:31.531Z,25.27
2019-04-25T19:11:00.049Z,20.13
2019-04-25T19:13:28.627Z,23.33
2019-04-25T19:15:57.275Z,17.27
2019-04-25T19:18:25.964Z,18.57
2019-04-25T19:20:55.724Z,19.13
2019-04-25T19:23:24.891Z,13.67
2019-04-25T19:25:53.423Z,21.20
2019-04-25T19:28:21.882Z,20.40
2019-04-25T19:30:51.403Z,22.93
2019-04-25T19:33:21.883Z,18.57
2019-04-25T19:36:08.969Z,20.77
2019-04-25T19:38:37.566Z,21.67
2019-04-25T19:41:34.141Z,27.33
2019-04-25T19:44:07.956Z,18.53
2019-04-25T19:46:41.450Z,21.70
2019-04-25T19:49:10.734Z,17.20
2019-04-25T19:51:41.643Z,18.33
2019-04-25T19:54:10.359Z,18.93
2019-04-25T19:56:39.212Z,19.77
2019-04-25T19:59:10.331Z,20.27
2019-04-25T20:01:38.818Z,16.23
2019-04-25T20:04:29.644Z,15.90
2019-04-25T20:07:17.705Z,22.93
2019-04-25T20:10:05.636Z,23.50
2019-04-25T20:12:44.021Z,24.90
2019-04-25T20:15:13.968Z,23.13
2019-04-25T20:17:43.275Z,21.57
2019-04-25T20:20:13.964Z,18.27
2019-04-25T20:22:42.468Z,22.23
2019-04-25T20:25:11.041Z,28.30
2019-04-25T20:27:39.569Z,17.27
2019-04-25T20:30:08.597Z,20.93
2019-04-25T20:32:40.052Z,21.93
2019-04-25T20:35:09.954Z,16.33
2019-04-25T20:37:38.528Z,17.80
2019-04-25T20:40:10.577Z,16.13
2019-04-25T20:42:39.029Z,23.03
2019-04-25T20:45:20.066Z,18.83
2019-04-25T20:47:48.593Z,16.87
2019-04-25T20:50:17.096Z,21.10
2019-04-25T20:52:47.522Z,14.73
2019-04-25T20:55:16.286Z,16.03
2019-04-25T20:57:44.735Z,18.87
2019-04-25T21:00:34.156Z,17.83
2019-04-25T21:03:02.717Z,17.40
2019-04-25T21:05:31.576Z,17.17
2019-04-25T21:08:00.546Z,22.37
2019-04-25T21:10:30.160Z,14.57
2019-04-25T21:12:59.249Z,16.23
2019-04-25T21:15:39.587Z,21.77
2019-04-25T21:18:23.426Z,16.33
2019-04-25T21:20:53.253Z,20.37
2019-04-25T21:23:22.014Z,15.83
2019-04-25T21:25:51.560Z,17.17
2019-04-25T21:28:20.210Z,16.03
2019-04-25T21:30:48.753Z,22.03
2019-04-25T21:33:18.641Z,21.10
2019-04-25T21:35:48.617Z,20.87
2019-04-25T21:38:18.471Z,18.27
2019-04-25T21:41:02.862Z,19.87
2019-04-25T21:43:35.266Z,18.40
2019-04-25T21:46:05.579Z,22.80
2019-04-25T21:48:37.424Z,16.40
2019-04-25T21:51:24.036Z,21.33
2019-04-25T21:53:52.806Z,20.03
2019-04-25T21:56:21.781Z,19.60
2019-04-25T21:58:51.919Z,19.87
2019-04-25T22:01:25.214Z,18.93
2019-04-25T22:03:54.501Z,24.90
2019-04-25T22:06:24.405Z,19.80
2019-04-25T22:08:52.954Z,19.77
2019-04-25T22:11:21.816Z,18.77
2019-04-25T22:13:51.056Z,18.93
2019-04-25T22:16:20.253Z,16.67
2019-04-25T22:18:50.566Z,25.00
2019-04-25T22:21:19.598Z,19.40
2019-04-25T22:23:48.534Z,21.90
2019-04-25T22:26:17.085Z,19.23
2019-04-25T22:28:45.696Z,16.17
2019-04-25T22:31:28.564Z,25.67
2019-04-25T22:34:26.330Z,22.77
2019-04-25T22:36:55.664Z,24.23
2019-04-25T22:39:28.506Z,18.80
2019-04-25T22:41:57.474Z,18.37
2019-04-25T22:44:26.131Z,20.03
2019-04-25T22:46:55.379Z,16.17
2019-04-25T22:49:25.185Z,19.33
2019-04-25T22:51:53.579Z,19.77
2019-04-25T22:54:23.712Z,18.30
2019-04-25T22:56:52.339Z,22.70
2019-04-25T22:59:20.986Z,16.43
2019-04-25T23:02:09.595Z,12.13
2019-04-25T23:05:05.335Z,17.03
2019-04-25T23:07:30.227Z,16.30
2019-04-25T23:09:59.178Z,14.73
2019-04-25T23:12:27.896Z,17.93
2019-04-25T23:14:56.467Z,20.87
2019-04-25T23:17:24.985Z,16.70
2019-04-25T23:19:53.761Z,22.90
2019-04-25T23:22:22.379Z,21.20
2019-04-25T23:24:58.845Z,16.10
2019-04-25T23:27:47.014Z,22.10
2019-04-25T23:30:18.215Z,14.53
2019-04-25T23:32:46.668Z,18.57
2019-04-25T23:35:28.082Z,16.80
2019-04-25T23:37:45.177Z,18.13
2019-04-25T23:40:13.829Z,12.80
2019-04-25T23:42:42.217Z,18.53
2019-04-25T23:45:10.556Z,18.30
2019-04-25T23:47:38.946Z,17.77
2019-04-25T23:50:08.692Z,20.03
2019-04-25T23:52:37.300Z,18.77
2019-04-25T23:55:08.108Z,18.90
2019-04-25T23:57:37.791Z,14.03
